sensor_id;sensor_type;location;lat;lon;timestamp;pressure;altitude;pressure_sealevel;temperature;humidity
77410;BME280;66481;51.332;22.804;2024-02-21T00:03:09;99990.97;;;4.58;100.00
77410;BME280;66481;51.332;22.804;2024-02-21T00:07:10;99981.56;;;4.54;100.00
77410;BME280;66481;51.332;22.804;2024-02-21T00:11:11;99992.75;;;4.58;100.00
77410;BME280;66481;51.332;22.804;2024-02-21T00:15:12;99993.88;;;4.52;100.00
77410;BME280;66481;51.332;22.804;2024-02-21T00:19:13;99986.28;;;4.46;100.00
77410;BME280;66481;51.332;22.804;2024-02-21T00:23:15;99987.78;;;4.51;100.00
77410;BME280;66481;51.332;22.804;2024-02-21T00:27:16;99987.28;;;4.43;100.00
77410;BME280;66481;51.332;22.804;2024-02-21T00:31:17;99980.47;;;4.39;100.00
77410;BME280;66481;51.332;22.804;2024-02-21T00:35:19;99981.16;;;4.43;100.00
77410;BME280;66481;51.332;22.804;2024-02-21T00:39:20;99978.66;;;4.41;100.00
77410;BME280;66481;51.332;22.804;2024-02-21T00:43:23;99972.75;;;4.36;100.00
77410;BME280;66481;51.332;22.804;2024-02-21T00:47:25;99966.78;;;4.32;100.00
77410;BME280;66481;51.332;22.804;2024-02-21T00:51:26;99967.34;;;4.39;100.00
77410;BME280;66481;51.332;22.804;2024-02-21T00:55:27;99958.91;;;4.32;100.00
77410;BME280;66481;51.332;22.804;2024-02-21T00:59:28;99953.97;;;4.26;100.00
77410;BME280;66481;51.332;22.804;2024-02-21T01:03:29;99963.38;;;4.30;100.00
77410;BME280;66481;51.332;22.804;2024-02-21T01:07:30;99956.22;;;4.34;100.00
77410;BME280;66481;51.332;22.804;2024-02-21T01:11:33;99950.09;;;4.35;100.00
77410;BME280;66481;51.332;22.804;2024-02-21T01:15:34;99944.91;;;4.33;100.00
77410;BME280;66481;51.332;22.804;2024-02-21T01:19:36;99938.97;;;4.30;100.00
77410;BME280;66481;51.332;22.804;2024-02-21T01:23:37;99945.91;;;4.31;100.00
77410;BME280;66481;51.332;22.804;2024-02-21T01:27:38;99941.44;;;4.33;100.00
77410;BME280;66481;51.332;22.804;2024-02-21T01:31:39;99936.41;;;4.28;100.00
77410;BME280;66481;51.332;22.804;2024-02-21T01:35:40;99929.38;;;4.29;100.00
77410;BME280;66481;51.332;22.804;2024-02-21T01:39:41;99935.44;;;4.31;100.00
77410;BME280;66481;51.332;22.804;2024-02-21T01:43:42;99927.78;;;4.26;100.00
77410;BME280;66481;51.332;22.804;2024-02-21T01:47:43;99925.16;;;4.26;100.00
77410;BME280;66481;51.332;22.804;2024-02-21T01:51:45;99919.13;;;4.24;100.00
77410;BME280;66481;51.332;22.804;2024-02-21T01:55:46;99921.38;;;4.13;100.00
77410;BME280;66481;51.332;22.804;2024-02-21T01:59:48;99911.81;;;4.12;100.00
77410;BME280;66481;51.332;22.804;2024-02-21T02:03:49;99919.47;;;4.17;100.00
77410;BME280;66481;51.332;22.804;2024-02-21T02:07:50;99917.25;;;4.07;100.00
77410;BME280;66481;51.332;22.804;2024-02-21T02:11:51;99916.41;;;4.07;100.00
77410;BME280;66481;51.332;22.804;2024-02-21T02:15:53;99909.59;;;4.03;100.00
77410;BME280;66481;51.332;22.804;2024-02-21T02:19:54;99912.22;;;4.03;100.00
77410;BME280;66481;51.332;22.804;2024-02-21T02:23:55;99914.56;;;4.09;100.00
77410;BME280;66481;51.332;22.804;2024-02-21T02:27:56;99895.78;;;3.99;100.00
77410;BME280;66481;51.332;22.804;2024-02-21T02:31:57;99897.75;;;3.94;100.00
77410;BME280;66481;51.332;22.804;2024-02-21T02:35:58;99887.50;;;3.89;100.00
77410;BME280;66481;51.332;22.804;2024-02-21T02:39:59;99890.91;;;3.91;100.00
77410;BME280;66481;51.332;22.804;2024-02-21T02:44:00;99885.78;;;3.88;100.00
77410;BME280;66481;51.332;22.804;2024-02-21T02:48:02;99882.72;;;3.79;100.00
77410;BME280;66481;51.332;22.804;2024-02-21T02:52:03;99886.03;;;3.82;100.00
77410;BME280;66481;51.332;22.804;2024-02-21T02:56:04;99887.94;;;3.79;100.00
77410;BME280;66481;51.332;22.804;2024-02-21T03:00:08;99879.44;;;3.73;100.00
77410;BME280;66481;51.332;22.804;2024-02-21T03:04:11;99884.41;;;3.80;100.00
77410;BME280;66481;51.332;22.804;2024-02-21T03:08:14;99889.00;;;3.74;100.00
77410;BME280;66481;51.332;22.804;2024-02-21T03:12:16;99887.44;;;3.70;100.00
77410;BME280;66481;51.332;22.804;2024-02-21T03:16:25;99878.84;;;3.67;100.00
77410;BME280;66481;51.332;22.804;2024-02-21T03:20:26;99885.19;;;3.61;100.00
77410;BME280;66481;51.332;22.804;2024-02-21T03:24:27;99871.50;;;3.34;100.00
77410;BME280;66481;51.332;22.804;2024-02-21T03:28:29;99865.31;;;3.14;100.00
77410;BME280;66481;51.332;22.804;2024-02-21T03:32:30;99860.91;;;2.94;100.00
77410;BME280;66481;51.332;22.804;2024-02-21T03:36:32;99859.88;;;2.76;100.00
77410;BME280;66481;51.332;22.804;2024-02-21T03:40:33;99869.13;;;2.63;100.00
77410;BME280;66481;51.332;22.804;2024-02-21T03:44:34;99876.44;;;2.53;100.00
77410;BME280;66481;51.332;22.804;2024-02-21T03:48:35;99875.19;;;2.40;100.00
77410;BME280;66481;51.332;22.804;2024-02-21T03:52:37;99893.72;;;2.34;100.00
77410;BME280;66481;51.332;22.804;2024-02-21T03:56:38;99889.78;;;2.22;100.00
77410;BME280;66481;51.332;22.804;2024-02-21T04:00:40;99899.22;;;2.26;100.00
77410;BME280;66481;51.332;22.804;2024-02-21T04:04:45;99909.13;;;2.40;100.00
77410;BME280;66481;51.332;22.804;2024-02-21T04:08:48;99916.75;;;2.46;100.00
77410;BME280;66481;51.332;22.804;2024-02-21T04:12:49;99920.94;;;2.50;100.00
77410;BME280;66481;51.332;22.804;2024-02-21T04:16:51;99925.75;;;2.61;100.00
77410;BME280;66481;51.332;22.804;2024-02-21T04:20:52;99935.84;;;2.72;100.00
77410;BME280;66481;51.332;22.804;2024-02-21T04:24:53;99934.53;;;2.82;100.00
77410;BME280;66481;51.332;22.804;2024-02-21T04:28:54;99935.22;;;2.87;100.00
77410;BME280;66481;51.332;22.804;2024-02-21T04:32:55;99930.81;;;2.89;100.00
77410;BME280;66481;51.332;22.804;2024-02-21T04:36:56;99926.38;;;2.91;100.00
77410;BME280;66481;51.332;22.804;2024-02-21T04:40:57;99932.34;;;2.95;100.00
77410;BME280;66481;51.332;22.804;2024-02-21T04:44:59;99923.75;;;2.91;100.00
77410;BME280;66481;51.332;22.804;2024-02-21T04:49:00;99926.44;;;2.90;100.00
77410;BME280;66481;51.332;22.804;2024-02-21T04:53:02;99925.59;;;2.89;100.00
77410;BME280;66481;51.332;22.804;2024-02-21T04:57:03;99922.25;;;2.86;100.00
77410;BME280;66481;51.332;22.804;2024-02-21T05:01:05;99935.72;;;2.97;100.00
77410;BME280;66481;51.332;22.804;2024-02-21T05:05:06;99931.34;;;2.97;100.00
77410;BME280;66481;51.332;22.804;2024-02-21T05:09:08;99936.28;;;3.05;100.00
77410;BME280;66481;51.332;22.804;2024-02-21T05:13:09;99940.31;;;3.14;100.00
77410;BME280;66481;51.332;22.804;2024-02-21T05:17:15;99934.28;;;3.12;100.00
77410;BME280;66481;51.332;22.804;2024-02-21T05:21:16;99933.25;;;3.16;100.00
77410;BME280;66481;51.332;22.804;2024-02-21T05:25:17;99940.13;;;3.18;100.00
77410;BME280;66481;51.332;22.804;2024-02-21T05:29:18;99944.31;;;3.23;100.00
77410;BME280;66481;51.332;22.804;2024-02-21T05:33:19;99934.69;;;3.23;100.00
77410;BME280;66481;51.332;22.804;2024-02-21T05:37:22;99927.84;;;3.20;100.00
77410;BME280;66481;51.332;22.804;2024-02-21T05:41:23;99931.97;;;3.26;100.00
77410;BME280;66481;51.332;22.804;2024-02-21T05:45:27;99935.38;;;3.28;100.00
77410;BME280;66481;51.332;22.804;2024-02-21T05:49:28;99944.09;;;3.29;100.00
77410;BME280;66481;51.332;22.804;2024-02-21T05:53:29;99936.97;;;3.32;100.00
77410;BME280;66481;51.332;22.804;2024-02-21T05:57:30;99933.31;;;3.36;100.00
77410;BME280;66481;51.332;22.804;2024-02-21T06:01:31;99934.25;;;3.34;100.00
77410;BME280;66481;51.332;22.804;2024-02-21T06:05:38;99934.16;;;3.37;100.00
77410;BME280;66481;51.332;22.804;2024-02-21T06:09:39;99939.19;;;3.42;100.00
77410;BME280;66481;51.332;22.804;2024-02-21T06:13:40;99941.75;;;3.43;100.00
77410;BME280;66481;51.332;22.804;2024-02-21T06:17:41;99937.31;;;3.45;100.00
77410;BME280;66481;51.332;22.804;2024-02-21T06:21:48;99936.06;;;3.54;100.00
77410;BME280;66481;51.332;22.804;2024-02-21T06:25:49;99937.72;;;3.56;100.00
77410;BME280;66481;51.332;22.804;2024-02-21T06:29:50;99929.00;;;3.56;100.00
77410;BME280;66481;51.332;22.804;2024-02-21T06:33:51;99944.50;;;3.83;100.00
77410;BME280;66481;51.332;22.804;2024-02-21T06:37:52;99953.84;;;4.09;100.00
77410;BME280;66481;51.332;22.804;2024-02-21T06:41:55;99945.94;;;4.10;100.00
77410;BME280;66481;51.332;22.804;2024-02-21T06:45:56;99945.34;;;4.24;100.00
77410;BME280;66481;51.332;22.804;2024-02-21T06:49:57;99939.09;;;4.27;100.00
77410;BME280;66481;51.332;22.804;2024-02-21T06:53:59;99933.59;;;4.33;100.00
77410;BME280;66481;51.332;22.804;2024-02-21T06:58:00;99941.88;;;4.43;100.00
77410;BME280;66481;51.332;22.804;2024-02-21T07:02:02;99932.59;;;4.36;100.00
77410;BME280;66481;51.332;22.804;2024-02-21T07:06:05;99925.94;;;4.28;100.00
77410;BME280;66481;51.332;22.804;2024-02-21T07:10:06;99919.63;;;4.32;100.00
77410;BME280;66481;51.332;22.804;2024-02-21T07:14:08;99926.31;;;4.40;100.00
77410;BME280;66481;51.332;22.804;2024-02-21T07:18:09;99924.88;;;4.51;100.00
77410;BME280;66481;51.332;22.804;2024-02-21T07:22:11;99930.00;;;4.74;100.00
77410;BME280;66481;51.332;22.804;2024-02-21T07:26:12;99932.94;;;4.86;100.00
77410;BME280;66481;51.332;22.804;2024-02-21T07:30:13;99919.13;;;4.83;100.00
77410;BME280;66481;51.332;22.804;2024-02-21T07:34:14;99923.84;;;4.75;100.00
77410;BME280;66481;51.332;22.804;2024-02-21T07:38:16;99912.66;;;4.71;100.00
77410;BME280;66481;51.332;22.804;2024-02-21T07:42:18;99908.75;;;4.80;100.00
77410;BME280;66481;51.332;22.804;2024-02-21T07:46:21;99894.88;;;4.78;100.00
77410;BME280;66481;51.332;22.804;2024-02-21T07:50:23;99907.72;;;5.01;100.00
77410;BME280;66481;51.332;22.804;2024-02-21T07:54:25;99912.75;;;5.25;100.00
77410;BME280;66481;51.332;22.804;2024-02-21T07:58:26;99911.75;;;5.45;100.00
77410;BME280;66481;51.332;22.804;2024-02-21T08:02:27;99908.91;;;5.50;100.00
77410;BME280;66481;51.332;22.804;2024-02-21T08:06:29;99896.47;;;5.53;100.00
77410;BME280;66481;51.332;22.804;2024-02-21T08:10:32;99892.84;;;5.56;100.00
77410;BME280;66481;51.332;22.804;2024-02-21T08:14:34;99884.91;;;5.57;100.00
77410;BME280;66481;51.332;22.804;2024-02-21T08:18:36;99904.25;;;6.07;100.00
77410;BME280;66481;51.332;22.804;2024-02-21T08:22:39;99886.50;;;5.95;100.00
77410;BME280;66481;51.332;22.804;2024-02-21T08:26:44;99876.38;;;5.87;99.93
77410;BME280;66481;51.332;22.804;2024-02-21T08:30:48;99861.81;;;5.64;99.76
77410;BME280;66481;51.332;22.804;2024-02-21T08:34:49;99874.59;;;5.88;99.93
77410;BME280;66481;51.332;22.804;2024-02-21T08:38:51;99868.06;;;5.96;99.22
77410;BME280;66481;51.332;22.804;2024-02-21T08:42:52;99866.19;;;5.98;99.22
77410;BME280;66481;51.332;22.804;2024-02-21T08:46:54;99857.25;;;6.02;98.94
77410;BME280;66481;51.332;22.804;2024-02-21T08:50:56;99864.72;;;6.26;98.77
77410;BME280;66481;51.332;22.804;2024-02-21T08:54:58;99860.09;;;6.31;98.32
77410;BME280;66481;51.332;22.804;2024-02-21T08:59:00;99863.06;;;6.57;97.56
77410;BME280;66481;51.332;22.804;2024-02-21T09:03:01;99858.69;;;6.57;96.81
77410;BME280;66481;51.332;22.804;2024-02-21T09:07:02;99854.06;;;6.45;96.90
77410;BME280;66481;51.332;22.804;2024-02-21T09:11:06;99851.72;;;6.56;96.76
77410;BME280;66481;51.332;22.804;2024-02-21T09:15:08;99886.31;;;7.73;95.06
77410;BME280;66481;51.332;22.804;2024-02-21T09:19:08;99860.94;;;7.72;93.24
77410;BME280;66481;51.332;22.804;2024-02-21T09:23:12;99844.63;;;7.51;92.33
77410;BME280;66481;51.332;22.804;2024-02-21T09:27:13;99807.66;;;6.92;91.94
77410;BME280;66481;51.332;22.804;2024-02-21T09:31:14;99820.06;;;6.90;92.55
77410;BME280;66481;51.332;22.804;2024-02-21T09:35:15;99837.91;;;7.45;92.63
77410;BME280;66481;51.332;22.804;2024-02-21T09:39:16;99829.09;;;7.46;92.05
77410;BME280;66481;51.332;22.804;2024-02-21T09:43:19;99817.91;;;7.43;91.15
77410;BME280;66481;51.332;22.804;2024-02-21T09:47:34;99809.03;;;7.29;91.79
77410;BME280;66481;51.332;22.804;2024-02-21T09:51:41;99835.66;;;7.84;92.13
77410;BME280;66481;51.332;22.804;2024-02-21T09:55:43;99845.69;;;9.45;87.52
77410;BME280;66481;51.332;22.804;2024-02-21T09:59:45;99803.84;;;9.12;85.85
77410;BME280;66481;51.332;22.804;2024-02-21T10:03:47;99792.78;;;8.23;87.56
77410;BME280;66481;51.332;22.804;2024-02-21T10:07:51;99765.06;;;7.75;87.11
77410;BME280;66481;51.332;22.804;2024-02-21T10:11:52;99793.84;;;8.21;88.45
77410;BME280;66481;51.332;22.804;2024-02-21T10:20:10;99785.00;;;7.64;89.86
77410;BME280;66481;51.332;22.804;2024-02-21T10:24:14;99754.00;;;6.64;91.63
77410;BME280;66481;51.332;22.804;2024-02-21T10:28:16;99759.63;;;6.58;92.07
77410;BME280;66481;51.332;22.804;2024-02-21T10:32:18;99766.31;;;6.64;92.79
77410;BME280;66481;51.332;22.804;2024-02-21T10:36:19;99775.63;;;6.85;93.62
77410;BME280;66481;51.332;22.804;2024-02-21T10:40:20;99784.84;;;7.23;93.37
77410;BME280;66481;51.332;22.804;2024-02-21T10:44:21;99748.88;;;6.93;92.08
77410;BME280;66481;51.332;22.804;2024-02-21T10:48:29;99753.09;;;6.95;92.03
77410;BME280;66481;51.332;22.804;2024-02-21T10:56:49;99776.88;;;6.94;92.76
77410;BME280;66481;51.332;22.804;2024-02-21T11:00:51;99749.13;;;6.58;92.75
77410;BME280;66481;51.332;22.804;2024-02-21T11:04:54;99755.84;;;6.78;92.60
77410;BME280;66481;51.332;22.804;2024-02-21T11:13:08;99740.94;;;6.78;92.46
77410;BME280;66481;51.332;22.804;2024-02-21T11:17:20;99749.22;;;6.87;93.15
77410;BME280;66481;51.332;22.804;2024-02-21T11:21:33;99755.88;;;7.08;93.10
77410;BME280;66481;51.332;22.804;2024-02-21T11:25:35;99744.03;;;7.15;92.84
77410;BME280;66481;51.332;22.804;2024-02-21T11:29:43;99732.22;;;7.23;92.39
77410;BME280;66481;51.332;22.804;2024-02-21T11:33:47;99732.25;;;7.37;92.36
77410;BME280;66481;51.332;22.804;2024-02-21T11:37:48;99732.34;;;7.64;91.60
77410;BME280;66481;51.332;22.804;2024-02-21T11:42:05;99708.16;;;7.43;90.67
77410;BME280;66481;51.332;22.804;2024-02-21T11:46:06;99709.75;;;7.31;90.97
77410;BME280;66481;51.332;22.804;2024-02-21T11:50:11;99709.78;;;7.46;90.78
77410;BME280;66481;51.332;22.804;2024-02-21T11:54:12;99728.28;;;8.02;90.95
77410;BME280;66481;51.332;22.804;2024-02-21T11:58:17;99699.75;;;8.08;88.85
77410;BME280;66481;51.332;22.804;2024-02-21T12:02:18;99691.19;;;8.32;87.15
77410;BME280;66481;51.332;22.804;2024-02-21T12:06:20;99668.47;;;8.17;86.27
77410;BME280;66481;51.332;22.804;2024-02-21T12:10:22;99675.28;;;8.06;85.89
77410;BME280;66481;51.332;22.804;2024-02-21T12:14:24;99678.31;;;8.27;86.31
77410;BME280;66481;51.332;22.804;2024-02-21T12:18:27;99688.41;;;8.75;85.90
77410;BME280;66481;51.332;22.804;2024-02-21T12:22:28;99673.97;;;9.07;84.55
77410;BME280;66481;51.332;22.804;2024-02-21T12:26:29;99640.06;;;8.75;83.36
77410;BME280;66481;51.332;22.804;2024-02-21T12:30:32;99634.81;;;8.75;83.32
77410;BME280;66481;51.332;22.804;2024-02-21T12:34:35;99629.97;;;8.69;83.07
77410;BME280;66481;51.332;22.804;2024-02-21T12:38:37;99627.31;;;8.69;83.56
77410;BME280;66481;51.332;22.804;2024-02-21T12:42:38;99605.34;;;8.55;82.82
77410;BME280;66481;51.332;22.804;2024-02-21T12:46:40;99599.44;;;8.64;82.43
77410;BME280;66481;51.332;22.804;2024-02-21T12:50:48;99594.28;;;8.76;81.25
77410;BME280;66481;51.332;22.804;2024-02-21T12:55:05;99589.19;;;8.60;80.59
77410;BME280;66481;51.332;22.804;2024-02-21T12:59:06;99582.53;;;8.54;80.86
77410;BME280;66481;51.332;22.804;2024-02-21T13:03:11;99572.34;;;8.22;82.48
77410;BME280;66481;51.332;22.804;2024-02-21T13:07:14;99587.34;;;8.35;82.46
77410;BME280;66481;51.332;22.804;2024-02-21T13:11:15;99584.81;;;8.33;82.87
77410;BME280;66481;51.332;22.804;2024-02-21T13:15:18;99555.91;;;7.91;81.92
77410;BME280;66481;51.332;22.804;2024-02-21T13:19:19;99558.72;;;7.88;82.29
77410;BME280;66481;51.332;22.804;2024-02-21T13:23:20;99562.81;;;7.80;82.74
77410;BME280;66481;51.332;22.804;2024-02-21T13:27:26;99571.69;;;7.64;83.04
77410;BME280;66481;51.332;22.804;2024-02-21T13:31:27;99573.00;;;7.71;83.86
77410;BME280;66481;51.332;22.804;2024-02-21T13:35:29;99579.50;;;7.66;85.31
77410;BME280;66481;51.332;22.804;2024-02-21T13:39:30;99564.06;;;7.74;85.63
77410;BME280;66481;51.332;22.804;2024-02-21T13:43:32;99578.97;;;7.88;86.09
77410;BME280;66481;51.332;22.804;2024-02-21T13:47:34;99565.09;;;7.71;86.13
77410;BME280;66481;51.332;22.804;2024-02-21T13:51:37;99566.28;;;7.53;87.26
77410;BME280;66481;51.332;22.804;2024-02-21T13:55:40;99578.22;;;7.59;87.52
77410;BME280;66481;51.332;22.804;2024-02-21T13:59:42;99565.50;;;7.65;87.22
77410;BME280;66481;51.332;22.804;2024-02-21T14:03:43;99554.00;;;7.66;86.36
77410;BME280;66481;51.332;22.804;2024-02-21T14:07:44;99560.72;;;7.85;85.84
77410;BME280;66481;51.332;22.804;2024-02-21T14:11:46;99542.72;;;7.91;85.29
77410;BME280;66481;51.332;22.804;2024-02-21T14:15:47;99546.66;;;7.99;84.66
77410;BME280;66481;51.332;22.804;2024-02-21T14:19:50;99534.56;;;7.82;84.56
77410;BME280;66481;51.332;22.804;2024-02-21T14:23:52;99536.25;;;7.56;85.09
77410;BME280;66481;51.332;22.804;2024-02-21T14:27:55;99552.66;;;7.46;85.92
77410;BME280;66481;51.332;22.804;2024-02-21T14:31:57;99548.38;;;7.31;87.16
77410;BME280;66481;51.332;22.804;2024-02-21T14:35:58;99546.75;;;7.28;88.12
77410;BME280;66481;51.332;22.804;2024-02-21T14:40:00;99546.59;;;7.17;88.12
77410;BME280;66481;51.332;22.804;2024-02-21T14:44:04;99545.66;;;7.18;88.27
77410;BME280;66481;51.332;22.804;2024-02-21T14:48:06;99548.72;;;7.25;89.17
77410;BME280;66481;51.332;22.804;2024-02-21T14:52:07;99539.84;;;7.13;89.57
77410;BME280;66481;51.332;22.804;2024-02-21T14:56:13;99548.56;;;7.13;89.95
77410;BME280;66481;51.332;22.804;2024-02-21T15:00:16;99534.31;;;7.03;90.41
77410;BME280;66481;51.332;22.804;2024-02-21T15:04:17;99538.44;;;6.93;90.94
77410;BME280;66481;51.332;22.804;2024-02-21T15:08:18;99540.50;;;6.88;91.97
77410;BME280;66481;51.332;22.804;2024-02-21T15:12:21;99532.63;;;6.73;92.78
77410;BME280;66481;51.332;22.804;2024-02-21T15:16:24;99551.19;;;6.56;94.31
77410;BME280;66481;51.332;22.804;2024-02-21T15:20:25;99551.91;;;6.44;95.26
77410;BME280;66481;51.332;22.804;2024-02-21T15:24:28;99557.72;;;6.49;95.59
77410;BME280;66481;51.332;22.804;2024-02-21T15:28:29;99551.34;;;6.38;96.36
77410;BME280;66481;51.332;22.804;2024-02-21T15:32:34;99551.25;;;6.40;96.83
77410;BME280;66481;51.332;22.804;2024-02-21T15:36:35;99552.53;;;6.33;97.55
77410;BME280;66481;51.332;22.804;2024-02-21T15:40:36;99549.97;;;6.17;98.15
77410;BME280;66481;51.332;22.804;2024-02-21T15:44:38;99538.03;;;6.11;98.61
77410;BME280;66481;51.332;22.804;2024-02-21T15:48:40;99538.22;;;6.08;99.23
77410;BME280;66481;51.332;22.804;2024-02-21T15:52:42;99538.03;;;6.11;98.98
77410;BME280;66481;51.332;22.804;2024-02-21T15:56:44;99546.94;;;6.09;99.21
77410;BME280;66481;51.332;22.804;2024-02-21T16:00:49;99544.00;;;5.99;100.00
77410;BME280;66481;51.332;22.804;2024-02-21T16:04:50;99547.31;;;6.02;100.00
77410;BME280;66481;51.332;22.804;2024-02-21T16:08:51;99527.31;;;6.00;100.00
77410;BME280;66481;51.332;22.804;2024-02-21T16:12:56;99537.41;;;5.92;100.00
77410;BME280;66481;51.332;22.804;2024-02-21T16:16:58;99529.09;;;5.83;100.00
77410;BME280;66481;51.332;22.804;2024-02-21T16:21:00;99529.31;;;5.95;100.00
77410;BME280;66481;51.332;22.804;2024-02-21T16:25:03;99531.34;;;5.90;100.00
77410;BME280;66481;51.332;22.804;2024-02-21T16:29:04;99518.59;;;5.83;100.00
77410;BME280;66481;51.332;22.804;2024-02-21T16:33:09;99510.88;;;5.80;100.00
77410;BME280;66481;51.332;22.804;2024-02-21T16:37:12;99507.50;;;5.78;100.00
77410;BME280;66481;51.332;22.804;2024-02-21T16:41:15;99510.13;;;5.78;100.00
77410;BME280;66481;51.332;22.804;2024-02-21T16:45:17;99494.72;;;5.72;100.00
77410;BME280;66481;51.332;22.804;2024-02-21T16:49:19;99506.66;;;5.78;100.00
77410;BME280;66481;51.332;22.804;2024-02-21T16:53:21;99500.84;;;5.73;100.00
77410;BME280;66481;51.332;22.804;2024-02-21T16:57:25;99494.06;;;5.69;100.00
77410;BME280;66481;51.332;22.804;2024-02-21T17:01:28;99486.94;;;5.71;100.00
77410;BME280;66481;51.332;22.804;2024-02-21T17:05:29;99486.44;;;5.64;100.00
77410;BME280;66481;51.332;22.804;2024-02-21T17:09:30;99491.97;;;5.59;100.00
77410;BME280;66481;51.332;22.804;2024-02-21T17:13:33;99473.69;;;5.58;100.00
77410;BME280;66481;51.332;22.804;2024-02-21T17:17:37;99483.94;;;5.62;100.00
77410;BME280;66481;51.332;22.804;2024-02-21T17:21:39;99476.81;;;5.64;100.00
77410;BME280;66481;51.332;22.804;2024-02-21T17:25:40;99484.50;;;5.68;100.00
77410;BME280;66481;51.332;22.804;2024-02-21T17:29:45;99493.72;;;5.75;100.00
77410;BME280;66481;51.332;22.804;2024-02-21T17:33:47;99488.72;;;5.70;100.00
77410;BME280;66481;51.332;22.804;2024-02-21T17:37:48;99493.63;;;5.76;100.00
77410;BME280;66481;51.332;22.804;2024-02-21T17:41:50;99500.38;;;5.80;100.00
77410;BME280;66481;51.332;22.804;2024-02-21T17:45:54;99491.59;;;5.81;100.00
77410;BME280;66481;51.332;22.804;2024-02-21T17:49:57;99484.88;;;5.76;100.00
77410;BME280;66481;51.332;22.804;2024-02-21T17:53:58;99480.59;;;5.75;100.00
77410;BME280;66481;51.332;22.804;2024-02-21T17:58:00;99475.44;;;5.73;100.00
77410;BME280;66481;51.332;22.804;2024-02-21T18:02:01;99475.44;;;5.73;100.00
77410;BME280;66481;51.332;22.804;2024-02-21T18:06:03;99474.38;;;5.76;100.00
77410;BME280;66481;51.332;22.804;2024-02-21T18:10:04;99469.13;;;5.76;100.00
77410;BME280;66481;51.332;22.804;2024-02-21T18:14:08;99479.22;;;5.83;100.00
77410;BME280;66481;51.332;22.804;2024-02-21T18:18:10;99476.22;;;5.90;100.00
77410;BME280;66481;51.332;22.804;2024-02-21T18:22:12;99464.44;;;5.97;99.90
77410;BME280;66481;51.332;22.804;2024-02-21T18:26:13;99466.22;;;5.96;99.35
77410;BME280;66481;51.332;22.804;2024-02-21T18:30:16;99448.59;;;5.98;99.04
77410;BME280;66481;51.332;22.804;2024-02-21T18:34:17;99446.75;;;6.00;98.86
77410;BME280;66481;51.332;22.804;2024-02-21T18:38:19;99429.47;;;5.96;99.24
77410;BME280;66481;51.332;22.804;2024-02-21T18:42:21;99427.84;;;5.94;99.35
77410;BME280;66481;51.332;22.804;2024-02-21T18:46:23;99429.53;;;5.95;99.21
77410;BME280;66481;51.332;22.804;2024-02-21T18:50:25;99415.06;;;5.88;99.89
77410;BME280;66481;51.332;22.804;2024-02-21T18:54:27;99428.28;;;5.86;99.83
77410;BME280;66481;51.332;22.804;2024-02-21T18:58:29;99421.28;;;5.87;100.00
77410;BME280;66481;51.332;22.804;2024-02-21T19:02:32;99429.47;;;5.96;99.99
77410;BME280;66481;51.332;22.804;2024-02-21T19:06:35;99421.59;;;5.96;99.49
77410;BME280;66481;51.332;22.804;2024-02-21T19:10:54;99417.16;;;5.97;99.39
77410;BME280;66481;51.332;22.804;2024-02-21T19:14:56;99418.78;;;5.99;98.97
77410;BME280;66481;51.332;22.804;2024-02-21T19:18:57;99410.91;;;5.99;99.15
77410;BME280;66481;51.332;22.804;2024-02-21T19:22:58;99405.31;;;6.06;98.87
77410;BME280;66481;51.332;22.804;2024-02-21T19:27:00;99397.41;;;6.06;98.48
77410;BME280;66481;51.332;22.804;2024-02-21T19:31:05;99391.59;;;6.15;98.13
77410;BME280;66481;51.332;22.804;2024-02-21T19:35:07;99382.09;;;6.12;98.14
77410;BME280;66481;51.332;22.804;2024-02-21T19:39:12;99384.38;;;6.18;97.61
77410;BME280;66481;51.332;22.804;2024-02-21T19:43:13;99381.19;;;6.13;97.51
77410;BME280;66481;51.332;22.804;2024-02-21T19:47:15;99366.72;;;6.20;97.03
77410;BME280;66481;51.332;22.804;2024-02-21T19:51:21;99363.53;;;6.15;96.95
77410;BME280;66481;51.332;22.804;2024-02-21T19:55:25;99366.16;;;6.15;97.33
77410;BME280;66481;51.332;22.804;2024-02-21T19:59:28;99360.00;;;6.16;96.79
77410;BME280;66481;51.332;22.804;2024-02-21T20:03:30;99371.41;;;6.15;97.00
77410;BME280;66481;51.332;22.804;2024-02-21T20:07:32;99359.13;;;6.16;96.53
77410;BME280;66481;51.332;22.804;2024-02-21T20:11:35;99355.66;;;6.15;96.83
77410;BME280;66481;51.332;22.804;2024-02-21T20:15:37;99357.38;;;6.16;96.69
77410;BME280;66481;51.332;22.804;2024-02-21T20:19:39;99353.78;;;6.03;96.98
77410;BME280;66481;51.332;22.804;2024-02-21T20:23:48;99347.03;;;5.99;97.55
77410;BME280;66481;51.332;22.804;2024-02-21T20:27:50;99347.63;;;5.88;97.89
77410;BME280;66481;51.332;22.804;2024-02-21T20:31:52;99339.88;;;5.87;97.85
77410;BME280;66481;51.332;22.804;2024-02-21T20:35:56;99328.69;;;5.83;98.26
77410;BME280;66481;51.332;22.804;2024-02-21T20:39:59;99327.41;;;5.90;98.18
77410;BME280;66481;51.332;22.804;2024-02-21T20:44:05;99319.97;;;5.82;98.18
77410;BME280;66481;51.332;22.804;2024-02-21T20:48:08;99321.84;;;5.80;97.96
77410;BME280;66481;51.332;22.804;2024-02-21T20:52:10;99321.94;;;5.79;98.16
77410;BME280;66481;51.332;22.804;2024-02-21T20:56:12;99326.75;;;5.87;98.15
77410;BME280;66481;51.332;22.804;2024-02-21T21:00:16;99318.97;;;5.85;97.74
77410;BME280;66481;51.332;22.804;2024-02-21T21:04:21;99322.59;;;5.82;97.81
77410;BME280;66481;51.332;22.804;2024-02-21T21:08:22;99319.97;;;5.82;97.91
77410;BME280;66481;51.332;22.804;2024-02-21T21:12:25;99324.13;;;5.87;97.30
77410;BME280;66481;51.332;22.804;2024-02-21T21:16:28;99323.34;;;5.84;97.44
77410;BME280;66481;51.332;22.804;2024-02-21T21:20:35;99324.22;;;5.85;97.65
77410;BME280;66481;51.332;22.804;2024-02-21T21:24:38;99316.25;;;5.87;97.62
77410;BME280;66481;51.332;22.804;2024-02-21T21:28:40;99312.31;;;5.94;97.38